createdAt,value
2023-05-14T00:00:03.102Z,1020.8
2023-05-14T00:01:02.056Z,1020.8
2023-05-14T00:02:02.435Z,1020.8
2023-05-14T00:03:02.367Z,1020.8
2023-05-14T00:04:02.462Z,1020.8
2023-05-14T00:05:02.208Z,1020.7
2023-05-14T00:06:02.125Z,1020.7
2023-05-14T00:07:02.137Z,1020.7
2023-05-14T00:08:01.979Z,1020.7
2023-05-14T00:09:02.111Z,1020.7
2023-05-14T00:10:02.050Z,1020.7
2023-05-14T00:11:01.992Z,1020.7
2023-05-14T00:12:01.882Z,1020.7
2023-05-14T00:13:01.892Z,1020.7
2023-05-14T00:14:01.732Z,1020.6
2023-05-14T00:15:01.741Z,1020.8
2023-05-14T00:16:01.723Z,1020.7
2023-05-14T00:17:01.944Z,1020.6
2023-05-14T00:18:02.214Z,1020.7
2023-05-14T00:19:02.003Z,1020.7
2023-05-14T00:20:01.969Z,1020.6
2023-05-14T00:21:01.737Z,1020.7
2023-05-14T00:22:01.746Z,1020.7
2023-05-14T00:23:01.585Z,1020.7
2023-05-14T00:24:01.655Z,1020.6
2023-05-14T00:25:02.658Z,1020.6
2023-05-14T00:26:02.557Z,1020.6
2023-05-14T00:27:02.572Z,1020.6
2023-05-14T00:28:02.494Z,1020.6
2023-05-14T00:29:02.608Z,1020.6
2023-05-14T00:30:02.463Z,1020.6
2023-05-14T00:31:02.457Z,1020.6
2023-05-14T00:33:02.459Z,1020.6
2023-05-14T00:34:02.246Z,1020.6
2023-05-14T00:35:02.126Z,1020.5
2023-05-14T00:36:02.242Z,1020.6
2023-05-14T00:37:02.049Z,1020.5
2023-05-14T00:38:02.072Z,1020.6
2023-05-14T00:39:01.943Z,1020.6
2023-05-14T00:40:01.910Z,1020.6
2023-05-14T00:41:01.901Z,1020.6
2023-05-14T00:42:01.804Z,1020.5
2023-05-14T00:43:01.714Z,1020.6
2023-05-14T00:44:01.791Z,1020.5
2023-05-14T00:45:01.614Z,1020.4
2023-05-14T00:46:01.663Z,1020.5
2023-05-14T00:47:02.428Z,1020.5
2023-05-14T00:48:02.270Z,1020.5
2023-05-14T00:49:02.212Z,1020.5
2023-05-14T00:50:02.087Z,1020.5
2023-05-14T00:51:02.125Z,1020.5
2023-05-14T00:52:02.248Z,1020.6
2023-05-14T00:53:01.975Z,1020.6
2023-05-14T00:54:02.041Z,1020.6
2023-05-14T00:55:01.939Z,1020.6
2023-05-14T00:56:01.948Z,1020.7
2023-05-14T00:57:01.861Z,1020.6
2023-05-14T00:58:01.901Z,1020.6
2023-05-14T00:59:01.801Z,1020.6
2023-05-14T01:00:02.387Z,1020.6
2023-05-14T01:01:02.466Z,1020.6
2023-05-14T01:03:02.150Z,1020.6
2023-05-14T01:04:02.193Z,1020.6
2023-05-14T01:05:01.867Z,1020.6
2023-05-14T01:06:01.921Z,1020.6
2023-05-14T01:07:01.721Z,1020.6
2023-05-14T01:08:01.708Z,1020.6
2023-05-14T01:09:01.634Z,1020.6
2023-05-14T01:10:01.743Z,1020.6
2023-05-14T01:11:01.585Z,1020.6
2023-05-14T01:12:01.616Z,1020.6
2023-05-14T01:13:02.641Z,1020.6
2023-05-14T01:14:02.461Z,1020.6
2023-05-14T01:15:02.581Z,1020.6
2023-05-14T01:16:02.502Z,1020.6
2023-05-14T01:17:02.414Z,1020.6
2023-05-14T01:18:02.534Z,1020.6
2023-05-14T01:19:02.489Z,1020.6
2023-05-14T01:20:02.287Z,1020.6
2023-05-14T01:21:02.228Z,1020.6
2023-05-14T01:22:02.086Z,1020.6
2023-05-14T01:23:02.139Z,1020.6
2023-05-14T01:24:02.055Z,1020.6
2023-05-14T01:25:02.032Z,1020.6
2023-05-14T01:26:01.935Z,1020.6
2023-05-14T01:27:01.964Z,1020.6
2023-05-14T01:28:01.849Z,1020.6
2023-05-14T01:29:01.845Z,1020.6
2023-05-14T01:30:01.671Z,1020.6
2023-05-14T01:31:01.746Z,1020.6
2023-05-14T01:32:02.623Z,1020.6
2023-05-14T01:33:02.438Z,1020.6
2023-05-14T01:34:02.382Z,1020.6
2023-05-14T01:35:02.338Z,1020.6
2023-05-14T01:36:02.159Z,1020.6
2023-05-14T01:37:02.194Z,1020.6
2023-05-14T01:38:02.257Z,1020.6
2023-05-14T01:39:02.067Z,1020.6
2023-05-14T01:40:02.061Z,1020.6
2023-05-14T01:41:01.966Z,1020.6
2023-05-14T01:42:01.985Z,1020.7
2023-05-14T01:43:02.056Z,1020.7
2023-05-14T01:44:01.872Z,1020.7
2023-05-14T01:45:01.742Z,1020.7
2023-05-14T01:46:01.861Z,1020.7
2023-05-14T01:47:01.738Z,1020.7
2023-05-14T01:48:01.888Z,1020.7
2023-05-14T01:49:01.586Z,1020.6
2023-05-14T01:50:02.650Z,1020.7
2023-05-14T01:51:02.485Z,1020.6
2023-05-14T01:52:02.552Z,1020.6
2023-05-14T01:53:02.431Z,1020.6
2023-05-14T01:54:02.532Z,1020.6
2023-05-14T01:55:02.384Z,1020.6
2023-05-14T01:56:02.394Z,1020.6
2023-05-14T01:57:02.417Z,1020.5
2023-05-14T01:58:02.230Z,1020.5
2023-05-14T01:59:02.218Z,1020.5
2023-05-14T02:00:02.066Z,1020.6
2023-05-14T02:01:02.281Z,1020.6
2023-05-14T02:03:01.902Z,1020.6
2023-05-14T02:04:01.885Z,1020.6
2023-05-14T02:05:01.646Z,1020.6
2023-05-14T02:06:02.684Z,1020.5
2023-05-14T02:07:02.590Z,1020.6
2023-05-14T02:08:02.651Z,1020.5
2023-05-14T02:09:02.452Z,1020.5
2023-05-14T02:10:02.509Z,1020.5
2023-05-14T02:11:02.372Z,1020.5
2023-05-14T02:12:02.426Z,1020.5
2023-05-14T02:13:02.286Z,1020.5
2023-05-14T02:14:02.258Z,1020.5
2023-05-14T02:15:02.260Z,1020.5
2023-05-14T02:16:02.251Z,1020.5
2023-05-14T02:17:02.143Z,1020.4
2023-05-14T02:18:02.336Z,1020.4
2023-05-14T02:19:02.328Z,1020.4
2023-05-14T02:20:02.006Z,1020.5
2023-05-14T02:21:02.016Z,1020.4
2023-05-14T02:22:01.882Z,1020.5
2023-05-14T02:23:01.806Z,1020.4
2023-05-14T02:24:01.740Z,1020.4
2023-05-14T02:25:01.723Z,1020.4
2023-05-14T02:26:01.600Z,1020.4
2023-05-14T02:27:01.692Z,1020.4
2023-05-14T02:28:01.615Z,1020.5
2023-05-14T02:29:02.640Z,1020.4
2023-05-14T02:30:02.497Z,1020.4
2023-05-14T02:31:02.634Z,1020.4
2023-05-14T02:32:02.312Z,1020.3
2023-05-14T02:33:02.653Z,1020.4
2023-05-14T02:34:02.433Z,1020.4
2023-05-14T02:35:02.399Z,1020.4
2023-05-14T02:36:02.294Z,1020.4
2023-05-14T02:37:02.287Z,1020.4
2023-05-14T02:38:02.205Z,1020.3
2023-05-14T02:39:02.189Z,1020.4
2023-05-14T02:40:02.020Z,1020.4
2023-05-14T02:41:01.974Z,1020.3
2023-05-14T02:42:01.819Z,1020.4
2023-05-14T02:43:01.943Z,1020.4
2023-05-14T02:44:01.743Z,1020.4
2023-05-14T02:45:01.817Z,1020.3
2023-05-14T02:46:01.618Z,1020.3
2023-05-14T02:47:02.631Z,1020.4
2023-05-14T02:48:02.769Z,1020.3
2023-05-14T02:49:02.424Z,1020.4
2023-05-14T02:50:02.506Z,1020.3
2023-05-14T02:51:02.334Z,1020.3
2023-05-14T02:52:02.388Z,1020.3
2023-05-14T02:53:02.364Z,1020.3
2023-05-14T02:54:02.134Z,1020.3
2023-05-14T02:55:02.190Z,1020.3
2023-05-14T02:56:02.057Z,1020.3
2023-05-14T02:57:02.141Z,1020.3
2023-05-14T02:58:01.857Z,1020.3
2023-05-14T02:59:02.648Z,1020.3
2023-05-14T03:00:02.769Z,1020.3
2023-05-14T03:01:02.893Z,1020.2
2023-05-14T03:02:03.464Z,1020.3
2023-05-14T03:03:03.299Z,1020.2
2023-05-14T03:04:02.530Z,1020.2
2023-05-14T03:05:02.455Z,1020.2
2023-05-14T03:06:02.518Z,1020.2
2023-05-14T03:07:02.351Z,1020.2
2023-05-14T03:08:02.451Z,1020.2
2023-05-14T03:09:02.302Z,1020.1
2023-05-14T03:10:02.188Z,1020.1
2023-05-14T03:11:02.226Z,1020.1
2023-05-14T03:12:02.072Z,1020.1
2023-05-14T03:13:02.139Z,1020
2023-05-14T03:14:01.900Z,1020.1
2023-05-14T03:15:01.874Z,1020
2023-05-14T03:16:01.740Z,1020
2023-05-14T03:17:01.802Z,1020
2023-05-14T03:18:01.786Z,1020
2023-05-14T03:19:02.812Z,1020.1
2023-05-14T03:20:02.512Z,1020.1
2023-05-14T03:21:02.479Z,1020.1
2023-05-14T03:22:02.403Z,1020
2023-05-14T03:23:02.450Z,1020.1
2023-05-14T03:24:02.362Z,1020
2023-05-14T03:25:02.369Z,1020.1
2023-05-14T03:26:02.366Z,1020.1
2023-05-14T03:27:02.163Z,1020.1
2023-05-14T03:28:02.243Z,1020
2023-05-14T03:29:02.000Z,1020
2023-05-14T03:30:02.158Z,1020.1
2023-05-14T03:31:02.260Z,1020
2023-05-14T03:32:02.055Z,1020.1
2023-05-14T03:33:02.198Z,1020.1
2023-05-14T03:34:01.951Z,1020.1
2023-05-14T03:35:01.960Z,1020.1
2023-05-14T03:36:01.849Z,1020.1
2023-05-14T03:37:01.704Z,1020.1
2023-05-14T03:38:01.710Z,1020.1
2023-05-14T03:39:01.694Z,1020.1
2023-05-14T03:40:01.583Z,1020.1
2023-05-14T03:41:02.367Z,1020.1
2023-05-14T03:42:02.313Z,1020.1
2023-05-14T03:43:02.127Z,1020
2023-05-14T03:44:02.206Z,1020
2023-05-14T03:45:02.018Z,1020.1
2023-05-14T03:46:02.032Z,1020.1
2023-05-14T03:47:02.671Z,1020
2023-05-14T03:48:03.051Z,1020
2023-05-14T03:49:02.169Z,1020
2023-05-14T03:50:01.783Z,1020
2023-05-14T03:51:01.756Z,1020.1
2023-05-14T03:52:01.743Z,1020
2023-05-14T03:53:01.675Z,1020
2023-05-14T03:54:02.667Z,1020
2023-05-14T03:55:02.514Z,1020
2023-05-14T03:56:02.580Z,1020
2023-05-14T03:57:02.455Z,1020
2023-05-14T03:58:02.475Z,1020
2023-05-14T03:59:02.343Z,1020.1
2023-05-14T04:00:02.567Z,1020
2023-05-14T04:01:02.475Z,1020.1
2023-05-14T04:02:02.182Z,1020
2023-05-14T04:03:03.096Z,1019.9
2023-05-14T04:04:02.312Z,1019.9
2023-05-14T04:05:02.039Z,1019.9
2023-05-14T04:06:02.072Z,1019.9
2023-05-14T04:07:01.898Z,1019.9
2023-05-14T04:08:01.875Z,1020
2023-05-14T04:09:01.715Z,1020
2023-05-14T04:10:05.071Z,1020
2023-05-14T04:11:01.630Z,1020
2023-05-14T04:12:01.661Z,1020
2023-05-14T04:13:02.641Z,1020
2023-05-14T04:14:02.565Z,1020
2023-05-14T04:15:02.617Z,1020
2023-05-14T04:16:02.713Z,1020
2023-05-14T04:17:02.264Z,1020
2023-05-14T04:18:02.502Z,1020
2023-05-14T04:19:02.442Z,1020
2023-05-14T04:20:02.165Z,1020
2023-05-14T04:21:02.086Z,1020
2023-05-14T04:22:01.993Z,1020
2023-05-14T04:23:01.999Z,1019.9
2023-05-14T04:24:01.862Z,1020
2023-05-14T04:25:02.314Z,1020
2023-05-14T04:26:02.282Z,1020
2023-05-14T04:27:02.021Z,1020
2023-05-14T04:28:02.049Z,1020
2023-05-14T04:29:01.879Z,1020
2023-05-14T04:30:01.910Z,1020
2023-05-14T04:31:01.741Z,1020
2023-05-14T04:32:02.715Z,1020
2023-05-14T04:33:02.748Z,1020
2023-05-14T04:34:02.427Z,1020
2023-05-14T04:35:02.497Z,1019.9
2023-05-14T04:36:02.421Z,1020
2023-05-14T04:37:02.352Z,1020
2023-05-14T04:38:02.343Z,1020
2023-05-14T04:39:02.219Z,1020
2023-05-14T04:40:02.272Z,1019.9
2023-05-14T04:41:02.061Z,1020
2023-05-14T04:42:02.114Z,1020
2023-05-14T04:43:02.002Z,1020
2023-05-14T04:44:02.074Z,1020
2023-05-14T04:45:01.943Z,1020
2023-05-14T04:46:02.075Z,1020
2023-05-14T04:47:01.584Z,1020
2023-05-14T04:48:01.976Z,1020
2023-05-14T04:49:01.597Z,1020
2023-05-14T04:50:01.703Z,1020
2023-05-14T04:51:07.157Z,1020.1
2023-05-14T04:52:01.879Z,1020
2023-05-14T04:53:01.875Z,1020.1
2023-05-14T04:54:01.967Z,1020
2023-05-14T04:55:01.884Z,1020
2023-05-14T04:56:01.638Z,1020
2023-05-14T04:57:01.645Z,1019.9
2023-05-14T04:58:02.650Z,1019.9
2023-05-14T04:59:02.517Z,1019.9
2023-05-14T05:00:02.744Z,1019.9
2023-05-14T05:01:01.702Z,1019.9
2023-05-14T05:02:02.259Z,1019.9
2023-05-14T05:03:02.473Z,1019.9
2023-05-14T05:04:02.399Z,1019.9
2023-05-14T05:05:02.126Z,1019.9
2023-05-14T05:06:02.164Z,1019.8
2023-05-14T05:07:02.009Z,1019.9
2023-05-14T05:08:02.029Z,1019.9
2023-05-14T05:09:02.730Z,1019.9
2023-05-14T05:10:02.363Z,1019.9
2023-05-14T05:11:02.327Z,1019.9
2023-05-14T05:12:02.404Z,1019.9
2023-05-14T05:13:02.236Z,1019.8
2023-05-14T05:14:02.303Z,1019.8
2023-05-14T05:15:02.236Z,1019.8
2023-05-14T05:16:02.304Z,1019.7
2023-05-14T05:17:02.373Z,1019.8
2023-05-14T05:18:02.382Z,1019.8
2023-05-14T05:19:02.425Z,1019.8
2023-05-14T05:20:02.107Z,1019.9
2023-05-14T05:21:02.151Z,1019.8
2023-05-14T05:22:02.005Z,1019.9
2023-05-14T05:23:02.067Z,1019.9
2023-05-14T05:24:01.902Z,1019.8
2023-05-14T05:25:02.030Z,1019.9
2023-05-14T05:26:01.941Z,1019.8
2023-05-14T05:27:02.031Z,1019.8
2023-05-14T05:28:01.846Z,1019.8
2023-05-14T05:29:01.899Z,1019.8
2023-05-14T05:30:01.841Z,1019.8
2023-05-14T05:31:01.929Z,1019.8
2023-05-14T05:32:01.908Z,1019.8
2023-05-14T05:33:02.526Z,1019.8
2023-05-14T05:34:02.406Z,1019.8
2023-05-14T05:35:02.296Z,1019.8
2023-05-14T05:36:02.343Z,1019.9
2023-05-14T05:37:02.255Z,1019.8
2023-05-14T05:38:02.349Z,1019.8
2023-05-14T05:39:02.079Z,1019.8
2023-05-14T05:40:01.935Z,1019.8
2023-05-14T05:41:02.022Z,1019.9
2023-05-14T05:42:01.920Z,1019.8
2023-05-14T05:43:01.963Z,1019.7
2023-05-14T05:44:01.967Z,1019.8
2023-05-14T05:45:01.874Z,1019.8
2023-05-14T05:46:02.025Z,1019.8
2023-05-14T05:47:02.249Z,1019.8
2023-05-14T05:48:02.246Z,1019.8
2023-05-14T05:49:01.969Z,1019.8
2023-05-14T05:50:02.091Z,1019.8
2023-05-14T05:51:01.921Z,1019.8
2023-05-14T05:52:01.994Z,1019.8
2023-05-14T05:53:01.882Z,1019.8
2023-05-14T05:54:01.857Z,1019.7
2023-05-14T05:55:01.816Z,1019.7
2023-05-14T05:56:01.919Z,1019.7
2023-05-14T05:57:01.809Z,1019.7
2023-05-14T05:58:01.835Z,1019.7
2023-05-14T05:59:01.768Z,1019.7
2023-05-14T06:00:03.226Z,1019.8
2023-05-14T06:01:02.092Z,1019.8
2023-05-14T06:02:02.065Z,1019.8
2023-05-14T06:03:02.224Z,1019.8
2023-05-14T06:04:01.913Z,1019.8
2023-05-14T06:05:02.162Z,1019.8
2023-05-14T06:06:01.828Z,1019.9
2023-05-14T06:07:01.852Z,1019.9
2023-05-14T06:08:01.678Z,1019.9
2023-05-14T06:09:01.728Z,1019.9
2023-05-14T06:10:01.610Z,1019.8
2023-05-14T06:11:02.657Z,1019.9
2023-05-14T06:12:02.614Z,1019.9
2023-05-14T06:13:02.486Z,1019.9
2023-05-14T06:14:02.416Z,1019.9
2023-05-14T06:15:02.477Z,1019.8
2023-05-14T06:16:02.516Z,1019.8
2023-05-14T06:17:02.907Z,1019.7
2023-05-14T06:18:02.760Z,1019.7
2023-05-14T06:19:02.593Z,1019.7
2023-05-14T06:20:02.600Z,1019.7
2023-05-14T06:21:02.431Z,1019.7
2023-05-14T06:22:02.492Z,1019.8
2023-05-14T06:23:02.359Z,1019.7
2023-05-14T06:24:02.402Z,1019.7
2023-05-14T06:25:02.373Z,1019.8
2023-05-14T06:26:02.168Z,1019.7
2023-05-14T06:27:02.228Z,1019.7
2023-05-14T06:28:02.032Z,1019.6
2023-05-14T06:29:02.067Z,1019.6
2023-05-14T06:30:01.916Z,1019.6
2023-05-14T06:31:01.993Z,1019.7
2023-05-14T06:32:01.831Z,1019.7
2023-05-14T06:33:01.862Z,1019.7
2023-05-14T06:34:01.609Z,1019.7
2023-05-14T06:35:02.662Z,1019.7
2023-05-14T06:36:02.440Z,1019.6
2023-05-14T06:37:02.537Z,1019.6
2023-05-14T06:38:02.402Z,1019.6
2023-05-14T06:39:02.468Z,1019.6
2023-05-14T06:40:02.406Z,1019.6
2023-05-14T06:41:02.423Z,1019.6
2023-05-14T06:42:02.403Z,1019.6
2023-05-14T06:43:02.280Z,1019.6
2023-05-14T06:44:02.274Z,1019.6
2023-05-14T06:45:02.272Z,1019.6
2023-05-14T06:46:02.132Z,1019.6
2023-05-14T06:47:02.059Z,1019.6
2023-05-14T06:48:02.271Z,1019.6
2023-05-14T06:49:02.220Z,1019.6
2023-05-14T06:50:02.062Z,1019.6
2023-05-14T06:51:02.018Z,1019.6
2023-05-14T06:52:01.904Z,1019.5
2023-05-14T06:53:01.952Z,1019.6
2023-05-14T06:54:01.910Z,1019.6
2023-05-14T06:55:02.448Z,1019.6
2023-05-14T06:56:02.220Z,1019.6
2023-05-14T06:57:02.016Z,1019.6
2023-05-14T06:58:02.079Z,1019.6
2023-05-14T06:59:01.944Z,1019.6
2023-05-14T07:00:07.044Z,1019.6
2023-05-14T07:01:01.831Z,1019.6
2023-05-14T07:02:01.773Z,1019.6
2023-05-14T07:03:01.883Z,1019.6
2023-05-14T07:04:02.017Z,1019.6
2023-05-14T07:05:01.729Z,1019.6
2023-05-14T07:06:01.654Z,1019.5
2023-05-14T07:07:01.708Z,1019.4
2023-05-14T07:08:01.621Z,1019.5
2023-05-14T07:09:01.760Z,1019.6
2023-05-14T07:10:02.645Z,1019.5
2023-05-14T07:11:02.514Z,1019.5
2023-05-14T07:12:02.617Z,1019.5
2023-05-14T07:13:02.429Z,1019.5
2023-05-14T07:14:02.453Z,1019.4
2023-05-14T07:15:02.369Z,1019.5
2023-05-14T07:16:02.281Z,1019.5
2023-05-14T07:17:02.334Z,1019.5
2023-05-14T07:18:02.293Z,1019.5
2023-05-14T07:19:02.124Z,1019.5
2023-05-14T07:20:02.036Z,1019.6
2023-05-14T07:21:01.906Z,1019.6
2023-05-14T07:22:01.880Z,1019.6
2023-05-14T07:23:01.751Z,1019.6
2023-05-14T07:24:01.784Z,1019.6
2023-05-14T07:25:01.614Z,1019.6
2023-05-14T07:26:01.626Z,1019.6
2023-05-14T07:27:01.560Z,1019.6
2023-05-14T07:28:02.613Z,1019.6
2023-05-14T07:29:02.558Z,1019.6
2023-05-14T07:30:02.657Z,1019.6
2023-05-14T07:31:02.625Z,1019.6
2023-05-14T07:32:02.536Z,1019.6
2023-05-14T07:33:02.685Z,1019.7
2023-05-14T07:34:02.494Z,1019.6
2023-05-14T07:35:02.385Z,1019.6
2023-05-14T07:36:02.457Z,1019.6
2023-05-14T07:37:02.224Z,1019.7
2023-05-14T07:38:02.325Z,1019.6
2023-05-14T07:39:02.309Z,1019.7
2023-05-14T07:40:02.123Z,1019.7
2023-05-14T07:41:02.114Z,1019.7
2023-05-14T07:42:02.073Z,1019.7
2023-05-14T07:43:02.125Z,1019.7
2023-05-14T07:44:01.902Z,1019.7
2023-05-14T07:45:01.980Z,1019.7
2023-05-14T07:46:01.780Z,1019.7
2023-05-14T07:47:01.756Z,1019.7
2023-05-14T07:48:02.324Z,1019.7
2023-05-14T07:49:02.018Z,1019.7
2023-05-14T07:50:02.094Z,1019.8
2023-05-14T07:51:02.024Z,1019.7
2023-05-14T07:52:02.034Z,1019.7
2023-05-14T07:53:01.892Z,1019.6
2023-05-14T07:54:01.854Z,1019.6
2023-05-14T07:55:01.693Z,1019.6
2023-05-14T07:56:01.753Z,1019.6
2023-05-14T07:57:01.634Z,1019.5
2023-05-14T07:58:01.701Z,1019.6
2023-05-14T07:59:02.658Z,1019.5
2023-05-14T08:00:02.515Z,1019.5
2023-05-14T08:01:02.577Z,1019.5
2023-05-14T08:02:02.636Z,1019.5
2023-05-14T08:03:03.088Z,1019.6
2023-05-14T08:04:02.217Z,1019.5
2023-05-14T08:05:02.127Z,1019.5
2023-05-14T08:06:01.905Z,1019.5
2023-05-14T08:07:02.061Z,1019.4
2023-05-14T08:08:01.846Z,1019.4
2023-05-14T08:09:01.935Z,1019.4
2023-05-14T08:10:01.781Z,1019.3
2023-05-14T08:11:01.958Z,1019.4
2023-05-14T08:12:01.696Z,1019.4
2023-05-14T08:13:01.697Z,1019.4
2023-05-14T08:14:02.656Z,1019.3
2023-05-14T08:15:02.551Z,1019.3
2023-05-14T08:16:02.592Z,1019.3
2023-05-14T08:18:02.452Z,1019.3
2023-05-14T08:19:02.471Z,1019.3
2023-05-14T08:20:02.218Z,1019.4
2023-05-14T08:21:04.285Z,1019.3
2023-05-14T08:22:01.991Z,1019.3
2023-05-14T08:23:01.935Z,1019.3
2023-05-14T08:24:01.893Z,1019.2
2023-05-14T08:25:01.930Z,1019.2
2023-05-14T08:26:01.863Z,1019.3
2023-05-14T08:27:01.862Z,1019.1
2023-05-14T08:28:01.700Z,1019.1
2023-05-14T08:29:01.811Z,1019.1
2023-05-14T08:30:01.684Z,1019.1
2023-05-14T08:31:01.893Z,1019.1
2023-05-14T08:32:23.659Z,1019
2023-05-14T08:33:01.793Z,1019
2023-05-14T08:34:01.688Z,1019.1
2023-05-14T08:35:01.744Z,1019
2023-05-14T08:36:01.700Z,1019
2023-05-14T08:37:01.609Z,1019
2023-05-14T08:38:01.690Z,1019
2023-05-14T08:39:02.754Z,1019
2023-05-14T08:40:02.546Z,1019.1
2023-05-14T08:41:02.693Z,1019
2023-05-14T08:42:02.501Z,1019
2023-05-14T08:43:02.801Z,1019
2023-05-14T08:44:02.429Z,1019
2023-05-14T08:45:02.666Z,1019
2023-05-14T08:46:02.418Z,1019
2023-05-14T08:47:02.582Z,1018.9
2023-05-14T08:48:03.019Z,1019
2023-05-14T08:49:01.763Z,1018.9
2023-05-14T08:50:01.768Z,1018.9
2023-05-14T08:51:02.679Z,1018.9
2023-05-14T08:52:02.503Z,1019
2023-05-14T08:53:02.570Z,1019
2023-05-14T08:54:02.442Z,1018.9
2023-05-14T08:55:02.444Z,1019
2023-05-14T08:56:02.385Z,1019
2023-05-14T08:57:02.227Z,1018.9
2023-05-14T08:58:02.230Z,1018.9
2023-05-14T08:59:02.233Z,1018.9
2023-05-14T09:00:02.269Z,1018.8
2023-05-14T09:01:02.220Z,1018.8
2023-05-14T09:02:02.638Z,1018.9
2023-05-14T09:03:02.548Z,1018.9
2023-05-14T09:04:02.582Z,1018.9
2023-05-14T09:05:02.435Z,1018.8
2023-05-14T09:06:02.183Z,1018.9
2023-05-14T09:07:02.325Z,1018.8
2023-05-14T09:08:02.013Z,1018.8
2023-05-14T09:09:02.070Z,1018.8
2023-05-14T09:10:01.902Z,1018.8
2023-05-14T09:11:02.015Z,1018.7
2023-05-14T09:12:01.812Z,1018.7
2023-05-14T09:13:01.735Z,1018.7
2023-05-14T09:14:01.604Z,1018.8
2023-05-14T09:15:01.623Z,1018.7
2023-05-14T09:16:02.751Z,1018.8
2023-05-14T09:17:02.388Z,1018.8
2023-05-14T09:18:02.659Z,1018.8
2023-05-14T09:19:02.514Z,1018.8
2023-05-14T09:20:02.401Z,1018.8
2023-05-14T09:21:02.376Z,1018.8
2023-05-14T09:22:02.259Z,1018.8
2023-05-14T09:23:02.257Z,1018.8
2023-05-14T09:24:01.963Z,1018.8
2023-05-14T09:25:01.978Z,1018.8
2023-05-14T09:26:01.858Z,1018.8
2023-05-14T09:27:01.847Z,1018.7
2023-05-14T09:28:01.717Z,1018.8
2023-05-14T09:29:01.712Z,1018.7
2023-05-14T09:30:01.624Z,1018.7
2023-05-14T09:31:01.824Z,1018.8
2023-05-14T09:32:01.861Z,1018.7
2023-05-14T09:33:01.876Z,1018.7
2023-05-14T09:34:02.702Z,1018.8
2023-05-14T09:35:02.475Z,1018.7
2023-05-14T09:36:02.533Z,1018.8
2023-05-14T09:37:02.441Z,1018.8
2023-05-14T09:38:02.524Z,1018.7
2023-05-14T09:39:02.326Z,1018.8
2023-05-14T09:40:02.355Z,1018.8
2023-05-14T09:41:02.385Z,1018.8
2023-05-14T09:42:02.224Z,1018.8
2023-05-14T09:43:02.286Z,1018.8
2023-05-14T09:44:04.212Z,1018.8
2023-05-14T09:45:01.971Z,1018.8
2023-05-14T09:46:02.047Z,1018.8
2023-05-14T09:47:02.057Z,1018.7
2023-05-14T09:48:02.394Z,1018.7
2023-05-14T09:49:02.229Z,1018.7
2023-05-14T09:50:02.104Z,1018.6
2023-05-14T09:51:05.183Z,1018.7
2023-05-14T09:52:01.805Z,1018.6
2023-05-14T09:53:01.803Z,1018.6
2023-05-14T09:54:01.651Z,1018.6
2023-05-14T09:55:01.759Z,1018.6
2023-05-14T09:56:01.604Z,1018.5
2023-05-14T09:57:02.637Z,1018.5
2023-05-14T09:58:02.515Z,1018.6
2023-05-14T09:59:02.574Z,1018.5
2023-05-14T10:00:02.804Z,1018.5
2023-05-14T10:01:02.013Z,1018.6
2023-05-14T10:02:02.600Z,1018.5
2023-05-14T10:03:02.630Z,1018.5
2023-05-14T10:04:02.595Z,1018.5
2023-05-14T10:05:02.347Z,1018.5
2023-05-14T10:06:02.362Z,1018.4
2023-05-14T10:07:02.328Z,1018.4
2023-05-14T10:08:02.219Z,1018.4
2023-05-14T10:09:02.221Z,1018.5
2023-05-14T10:10:02.204Z,1018.3
2023-05-14T10:11:01.996Z,1018.3
2023-05-14T10:12:01.945Z,1018.4
2023-05-14T10:13:01.811Z,1018.3
2023-05-14T10:14:01.798Z,1018.3
2023-05-14T10:15:01.679Z,1018.2
2023-05-14T10:16:01.712Z,1018.3
2023-05-14T10:17:02.542Z,1018.3
2023-05-14T10:18:02.416Z,1018.2
2023-05-14T10:19:02.400Z,1018.2
2023-05-14T10:20:02.297Z,1018.2
2023-05-14T10:21:02.155Z,1018.2
2023-05-14T10:22:02.153Z,1018.2
2023-05-14T10:23:02.008Z,1018.2
2023-05-14T10:24:02.087Z,1018.1
2023-05-14T10:25:01.899Z,1018.1
2023-05-14T10:26:01.817Z,1018.1
2023-05-14T10:27:01.705Z,1018.1
2023-05-14T10:28:01.704Z,1018.1
2023-05-14T10:29:01.614Z,1018.1
2023-05-14T10:30:02.676Z,1018
2023-05-14T10:31:02.639Z,1018
2023-05-14T10:33:01.911Z,1018
2023-05-14T10:34:01.674Z,1018
2023-05-14T10:35:01.732Z,1018
2023-05-14T10:36:01.612Z,1018
2023-05-14T10:37:02.636Z,1018
2023-05-14T10:38:02.485Z,1018
2023-05-14T10:39:02.522Z,1018
2023-05-14T10:40:02.438Z,1018
2023-05-14T10:41:02.452Z,1018
2023-05-14T10:42:02.309Z,1017.9
2023-05-14T10:43:02.387Z,1017.9
2023-05-14T10:44:02.310Z,1017.9
2023-05-14T10:45:02.237Z,1017.9
2023-05-14T10:46:02.159Z,1017.9
2023-05-14T10:48:01.960Z,1017.9
2023-05-14T10:49:01.805Z,1017.9
2023-05-14T10:50:01.745Z,1017.9
2023-05-14T10:51:01.686Z,1018
2023-05-14T10:52:02.617Z,1017.9
2023-05-14T10:53:02.578Z,1017.8
2023-05-14T10:54:02.566Z,1017.9
2023-05-14T10:55:04.346Z,1017.9
2023-05-14T10:56:01.953Z,1017.8
2023-05-14T10:57:02.014Z,1017.8
2023-05-14T10:58:01.868Z,1017.8
2023-05-14T10:59:01.902Z,1017.8
2023-05-14T11:00:02.724Z,1017.8
2023-05-14T11:01:01.632Z,1017.9
2023-05-14T11:02:01.799Z,1017.9
2023-05-14T11:03:01.809Z,1017.8
2023-05-14T11:04:01.682Z,1017.8
2023-05-14T11:05:02.624Z,1017.8
2023-05-14T11:06:02.528Z,1017.8
2023-05-14T11:07:02.635Z,1017.8
2023-05-14T11:08:02.520Z,1017.7
2023-05-14T11:09:02.583Z,1017.8
2023-05-14T11:10:02.417Z,1017.8
2023-05-14T11:11:02.404Z,1017.8
2023-05-14T11:12:02.492Z,1017.8
2023-05-14T11:13:02.198Z,1017.8
2023-05-14T11:14:02.291Z,1017.7
2023-05-14T11:15:02.291Z,1017.7
2023-05-14T11:16:24.050Z,1017.8
2023-05-14T11:17:01.865Z,1017.7
2023-05-14T11:18:01.899Z,1017.8
2023-05-14T11:19:01.986Z,1017.7
2023-05-14T11:20:01.801Z,1017.7
2023-05-14T11:21:01.720Z,1017.7
2023-05-14T11:22:02.661Z,1017.6
2023-05-14T11:23:02.565Z,1017.6
2023-05-14T11:24:02.602Z,1017.6
2023-05-14T11:25:02.489Z,1017.6
2023-05-14T11:26:02.682Z,1017.6
2023-05-14T11:27:02.401Z,1017.6
2023-05-14T11:28:02.461Z,1017.5
2023-05-14T11:29:02.368Z,1017.5
2023-05-14T11:30:02.345Z,1017.6
2023-05-14T11:31:02.433Z,1017.6
2023-05-14T11:32:02.622Z,1017.6
2023-05-14T11:33:02.745Z,1017.6
2023-05-14T11:34:02.470Z,1017.6
2023-05-14T11:35:02.373Z,1017.7
2023-05-14T11:36:02.501Z,1017.6
2023-05-14T11:37:02.386Z,1017.6
2023-05-14T11:38:02.447Z,1017.6
2023-05-14T11:39:02.336Z,1017.6
2023-05-14T11:40:02.445Z,1017.6
2023-05-14T11:41:02.318Z,1017.6
2023-05-14T11:42:02.200Z,1017.5
2023-05-14T11:43:02.256Z,1017.6
2023-05-14T11:44:02.073Z,1017.5
2023-05-14T11:45:02.176Z,1017.5
2023-05-14T11:46:02.344Z,1017.6
2023-05-14T11:47:02.087Z,1017.5
2023-05-14T11:48:02.245Z,1017.5
2023-05-14T11:49:02.019Z,1017.5
2023-05-14T11:50:02.036Z,1017.5
2023-05-14T11:51:01.878Z,1017.5
2023-05-14T11:52:01.885Z,1017.5
2023-05-14T11:53:01.709Z,1017.5
2023-05-14T11:54:01.715Z,1017.5
2023-05-14T11:55:01.605Z,1017.4
2023-05-14T11:56:01.657Z,1017.5
2023-05-14T11:57:01.622Z,1017.4
2023-05-14T11:58:02.678Z,1017.4
2023-05-14T11:59:01.636Z,1017.4
2023-05-14T12:00:02.643Z,1017.4
2023-05-14T12:01:02.560Z,1017.4
2023-05-14T12:03:02.902Z,1017.3
2023-05-14T12:04:02.770Z,1017.3
2023-05-14T12:05:02.638Z,1017.3
2023-05-14T12:06:02.481Z,1017.3
2023-05-14T12:07:02.461Z,1017.3
2023-05-14T12:08:02.369Z,1017.2
2023-05-14T12:09:02.398Z,1017.2
2023-05-14T12:10:02.309Z,1017.2
2023-05-14T12:11:02.222Z,1017.2
2023-05-14T12:12:02.289Z,1017.2
2023-05-14T12:13:02.037Z,1017.1
2023-05-14T12:14:02.070Z,1017.1
2023-05-14T12:15:01.987Z,1017.1
2023-05-14T12:16:02.059Z,1017.1
2023-05-14T12:17:01.856Z,1017.1
2023-05-14T12:18:08.359Z,1017.1
2023-05-14T12:19:02.306Z,1017.2
2023-05-14T12:20:02.245Z,1017.1
2023-05-14T12:21:02.227Z,1017
2023-05-14T12:22:02.229Z,1017.1
2023-05-14T12:23:02.034Z,1017
2023-05-14T12:24:02.054Z,1017
2023-05-14T12:25:02.066Z,1017
2023-05-14T12:26:02.096Z,1017
2023-05-14T12:27:01.966Z,1016.9
2023-05-14T12:28:02.065Z,1016.9
2023-05-14T12:29:01.951Z,1016.9
2023-05-14T12:30:27.658Z,1016.9
2023-05-14T12:31:02.446Z,1016.9
2023-05-14T12:33:01.822Z,1016.8
2023-05-14T12:34:02.637Z,1016.8
2023-05-14T12:35:02.470Z,1016.8
2023-05-14T12:36:22.691Z,1016.9
2023-05-14T12:37:02.326Z,1016.8
2023-05-14T12:38:02.401Z,1016.8
2023-05-14T12:39:02.382Z,1016.8
2023-05-14T12:40:02.345Z,1016.8
2023-05-14T12:41:02.270Z,1016.9
2023-05-14T12:42:02.303Z,1016.9
2023-05-14T12:43:02.102Z,1016.8